Time;durP1;ratioP1;P1;durP2;ratioP2;P2;SDS_P1;SDS_P2;PMS_P1;PMS_P2;Temp;Humidity;BMP_temperature;BMP_pressure;BME280_temperature;BME280_humidity;BME280_pressure;Samples;Min_cycle;Max_cycle;Signal;HPM_P1;HPM_P2
2023/06/09 00:02:07;;;;;;;7.80;5.22;;;22.10;99.90;;;;;;5028972;28;20200;-70
2023/06/09 00:04:36;;;;;;;6.38;5.22;;;22.10;99.90;;;;;;5023566;28;20216;-70
2023/06/09 00:07:03;;;;;;;8.82;5.78;;;22.20;99.90;;;;;;5020586;28;20216;-69
2023/06/09 00:09:29;;;;;;;8.15;5.50;;;22.00;99.90;;;;;;5020331;28;20213;-71
2023/06/09 00:11:55;;;;;;;10.75;5.70;;;21.90;99.90;;;;;;5015082;28;20527;-71
2023/06/09 00:14:21;;;;;;;7.68;5.25;;;21.90;99.90;;;;;;5016966;28;20192;-69
2023/06/09 00:16:46;;;;;;;9.63;5.78;;;21.90;99.90;;;;;;5018653;28;20216;-69
2023/06/09 00:19:19;;;;;;;11.02;6.35;;;21.80;99.90;;;;;;5024333;28;20288;-69
2023/06/09 00:21:49;;;;;;;9.13;5.55;;;21.80;99.90;;;;;;5022084;28;20200;-68
2023/06/09 00:24:20;;;;;;;9.40;5.88;;;21.80;99.90;;;;;;5021470;28;20228;-69
2023/06/09 00:26:47;;;;;;;7.32;6.43;;;21.80;99.90;;;;;;5023628;28;20201;-69
2023/06/09 00:29:13;;;;;;;8.18;6.13;;;21.80;99.90;;;;;;5021430;28;20220;-70
2023/06/09 00:31:41;;;;;;;8.63;5.95;;;21.80;99.90;;;;;;5026657;28;20694;-69
2023/06/09 00:34:07;;;;;;;8.13;5.72;;;21.90;99.90;;;;;;5023716;28;20233;-69
2023/06/09 00:36:33;;;;;;;10.13;5.80;;;21.90;99.90;;;;;;5028003;28;20675;-67
2023/06/09 00:38:59;;;;;;;11.05;6.68;;;21.90;99.90;;;;;;5028177;28;20180;-69
2023/06/09 00:41:25;;;;;;;7.78;5.38;;;21.90;99.90;;;;;;5029785;28;20818;-69
2023/06/09 00:43:51;;;;;;;11.63;6.28;;;21.90;99.90;;;;;;5011993;28;20569;-69
2023/06/09 00:46:17;;;;;;;9.50;6.53;;;21.90;99.90;;;;;;5009908;28;20217;-69
2023/06/09 00:48:43;;;;;;;9.02;6.07;;;21.80;99.90;;;;;;5015515;28;20244;-70
2023/06/09 00:51:10;;;;;;;8.77;6.40;;;21.70;99.90;;;;;;5014271;28;20236;-69
2023/06/09 00:53:36;;;;;;;9.68;6.63;;;21.70;99.90;;;;;;5019213;28;20223;-69
2023/06/09 00:56:01;;;;;;;10.32;6.18;;;21.70;99.90;;;;;;5013104;28;20699;-69
2023/06/09 00:58:27;;;;;;;8.90;6.70;;;21.60;99.90;;;;;;5019851;28;20261;-69
2023/06/09 01:00:53;;;;;;;8.52;5.95;;;21.60;99.90;;;;;;5021052;28;20204;-69
2023/06/09 01:03:19;;;;;;;10.07;6.25;;;21.50;99.90;;;;;;5020524;28;20251;-69
2023/06/09 01:05:48;;;;;;;9.40;6.72;;;21.40;99.90;;;;;;5024956;28;20669;-70
2023/06/09 01:08:15;;;;;;;9.90;6.63;;;21.40;99.90;;;;;;5022297;28;20198;-69
2023/06/09 01:10:50;;;;;;;8.38;6.03;;;21.30;99.90;;;;;;5025199;28;20549;-69
2023/06/09 01:13:34;;;;;;;8.40;6.18;;;21.30;99.90;;;;;;5026711;28;20208;-69
2023/06/09 01:16:20;;;;;;;9.23;6.40;;;21.40;99.90;;;;;;5022657;28;20200;-69
2023/06/09 01:18:48;;;;;;;12.65;7.35;;;21.40;99.90;;;;;;5027364;28;20220;-69
2023/06/09 01:21:23;;;;;;;10.35;6.10;;;21.30;99.90;;;;;;5024484;28;20200;-69
2023/06/09 01:24:15;;;;;;;9.80;6.43;;;21.30;99.90;;;;;;5015030;28;20206;-70
2023/06/09 01:26:41;;;;;;;10.65;7.20;;;21.30;99.90;;;;;;5006959;28;20176;-69
2023/06/09 01:29:08;;;;;;;10.88;6.78;;;21.20;99.90;;;;;;5007133;28;20224;-69
2023/06/09 01:31:35;;;;;;;16.85;7.50;;;21.20;99.90;;;;;;5018707;28;20208;-69
2023/06/09 01:34:01;;;;;;;7.65;6.38;;;21.20;99.90;;;;;;5017320;28;20204;-69
2023/06/09 01:36:29;;;;;;;8.98;6.63;;;21.10;99.90;;;;;;5018084;28;20216;-70
2023/06/09 01:38:56;;;;;;;9.32;6.65;;;21.10;99.90;;;;;;5021263;28;20228;-69
2023/06/09 01:41:21;;;;;;;11.05;6.55;;;21.10;99.90;;;;;;5019537;28;20173;-69
2023/06/09 01:43:47;;;;;;;8.40;6.53;;;21.00;99.90;;;;;;5019642;28;20579;-69
2023/06/09 01:46:13;;;;;;;12.45;7.45;;;21.00;99.90;;;;;;5020833;28;20216;-69
2023/06/09 01:48:52;;;;;;;8.75;6.85;;;20.90;99.90;;;;;;5023834;28;20215;-69
2023/06/09 01:51:22;;;;;;;10.68;7.30;;;20.80;99.90;;;;;;5023127;28;20227;-69
2023/06/09 01:53:56;;;;;;;11.05;6.75;;;20.80;99.90;;;;;;5028401;28;20176;-69
2023/06/09 01:56:50;;;;;;;10.93;6.75;;;20.70;99.90;;;;;;5023427;28;20168;-68
2023/06/09 01:59:19;;;;;;;9.00;6.90;;;20.70;99.90;;;;;;5024562;28;20196;-69
2023/06/09 02:01:47;;;;;;;10.23;6.75;;;20.70;99.90;;;;;;5024311;28;20211;-70
2023/06/09 02:04:14;;;;;;;9.45;7.70;;;20.60;99.90;;;;;;5018270;28;20307;-69
2023/06/09 02:06:41;;;;;;;7.97;7.18;;;20.60;99.90;;;;;;5017464;28;20254;-69
2023/06/09 02:09:06;;;;;;;9.52;7.80;;;20.60;99.90;;;;;;5016255;28;20175;-69
2023/06/09 02:11:32;;;;;;;11.82;7.35;;;20.60;99.90;;;;;;5020043;28;20196;-69
2023/06/09 02:13:58;;;;;;;9.02;7.03;;;20.60;99.90;;;;;;5017637;28;20197;-69
2023/06/09 02:16:24;;;;;;;9.32;6.95;;;20.60;99.90;;;;;;5018561;28;20210;-69
2023/06/09 02:18:50;;;;;;;10.60;7.18;;;20.70;99.90;;;;;;5022123;28;20204;-69
2023/06/09 02:21:16;;;;;;;11.40;6.88;;;20.80;99.90;;;;;;5037349;28;20214;-69
2023/06/09 02:23:42;;;;;;;10.73;6.88;;;20.80;99.90;;;;;;5024932;28;20623;-69
2023/06/09 02:26:07;;;;;;;8.45;7.07;;;20.80;99.90;;;;;;5022718;28;20559;-70
2023/06/09 02:28:33;;;;;;;9.15;6.85;;;20.70;99.90;;;;;;5025606;28;20218;-69
2023/06/09 02:30:59;;;;;;;9.30;7.63;;;20.70;99.90;;;;;;5024087;28;20212;-69
2023/06/09 02:33:25;;;;;;;8.98;7.38;;;20.60;99.90;;;;;;5028247;28;20257;-69
2023/06/09 02:35:51;;;;;;;11.50;6.75;;;20.50;99.90;;;;;;5027453;28;20575;-69
2023/06/09 02:38:17;;;;;;;13.40;8.05;;;20.50;99.90;;;;;;5025182;28;20207;-69
2023/06/09 02:40:45;;;;;;;15.82;7.75;;;20.50;99.90;;;;;;5026512;28;20204;-69
2023/06/09 02:43:11;;;;;;;9.15;7.15;;;20.40;99.90;;;;;;5030988;28;20264;-69
2023/06/09 02:45:36;;;;;;;13.25;7.90;;;20.40;99.90;;;;;;5024399;28;21056;-69
2023/06/09 02:48:02;;;;;;;10.80;7.45;;;20.40;99.90;;;;;;5013997;28;20204;-70
2023/06/09 02:50:28;;;;;;;9.95;7.13;;;20.30;99.90;;;;;;5020549;28;20194;-69
2023/06/09 02:52:53;;;;;;;11.18;7.38;;;20.20;99.90;;;;;;5021965;28;20674;-69
2023/06/09 02:55:20;;;;;;;11.43;7.75;;;20.20;99.90;;;;;;5015993;28;20764;-70
2023/06/09 02:57:46;;;;;;;12.43;7.63;;;20.00;99.90;;;;;;5011981;28;20236;-69
2023/06/09 03:00:12;;;;;;;11.05;7.72;;;20.10;99.90;;;;;;5000484;28;20241;-69
2023/06/09 03:02:41;;;;;;;12.35;7.35;;;20.00;99.90;;;;;;5023053;28;20183;-69
2023/06/09 03:05:07;;;;;;;13.32;8.40;;;20.00;99.90;;;;;;5017380;28;20212;-70
2023/06/09 03:07:32;;;;;;;11.45;8.20;;;20.10;99.90;;;;;;5009246;28;20209;-70
2023/06/09 03:09:59;;;;;;;9.10;7.55;;;20.10;99.90;;;;;;5002652;28;20208;-70
2023/06/09 03:12:25;;;;;;;12.95;7.65;;;20.20;99.90;;;;;;5004715;28;20291;-70
2023/06/09 03:14:51;;;;;;;13.57;7.72;;;20.20;99.90;;;;;;5025863;28;20603;-70
2023/06/09 03:17:17;;;;;;;10.25;6.82;;;20.20;99.90;;;;;;5027931;28;20705;-70
2023/06/09 03:19:43;;;;;;;9.30;7.93;;;20.20;99.90;;;;;;5012758;28;20213;-70
2023/06/09 03:22:08;;;;;;;12.82;7.32;;;20.20;99.90;;;;;;5020486;28;20249;-70
2023/06/09 03:24:34;;;;;;;10.95;7.63;;;20.30;99.90;;;;;;5030944;28;20315;-69
2023/06/09 03:27:00;;;;;;;11.07;7.47;;;20.80;99.90;;;;;;5019518;28;20216;-70
2023/06/09 03:29:28;;;;;;;11.68;7.65;;;21.40;99.90;;;;;;5012420;28;20181;-70
2023/06/09 03:31:54;;;;;;;12.50;8.55;;;21.80;99.90;;;;;;4997442;28;20263;-70
2023/06/09 03:34:20;;;;;;;9.13;7.38;;;21.90;99.90;;;;;;5006997;28;20305;-70
2023/06/09 03:36:46;;;;;;;12.85;7.53;;;22.00;99.90;;;;;;5022209;28;20678;-70
2023/06/09 03:39:11;;;;;;;10.30;7.47;;;22.10;99.90;;;;;;5016777;28;20244;-70
2023/06/09 03:41:37;;;;;;;13.02;7.93;;;22.10;99.90;;;;;;5022246;28;20176;-70
2023/06/09 03:44:03;;;;;;;10.95;6.75;;;22.20;99.90;;;;;;5017830;28;20568;-70
2023/06/09 03:46:28;;;;;;;10.15;7.60;;;22.70;99.90;;;;;;5022698;28;20291;-70
2023/06/09 03:48:54;;;;;;;11.60;7.07;;;23.00;99.90;;;;;;5011838;28;20295;-69
2023/06/09 03:51:20;;;;;;;10.50;7.72;;;23.70;99.90;;;;;;5008335;28;20224;-70
2023/06/09 03:53:46;;;;;;;10.30;7.28;;;24.20;99.90;;;;;;5025040;28;20176;-70
2023/06/09 03:56:12;;;;;;;9.15;7.55;;;24.90;99.90;;;;;;5002988;28;20680;-70
2023/06/09 03:58:38;;;;;;;13.25;8.20;;;25.50;99.90;;;;;;5022319;28;20545;-70
2023/06/09 04:01:04;;;;;;;9.80;7.65;;;25.90;99.90;;;;;;5027197;28;20645;-71
2023/06/09 04:03:30;;;;;;;12.20;7.90;;;26.30;99.90;;;;;;5029695;28;20211;-70
2023/06/09 04:05:55;;;;;;;13.15;8.18;;;26.70;99.90;;;;;;5029442;28;20547;-70
2023/06/09 04:08:21;;;;;;;10.95;7.43;;;27.20;99.90;;;;;;5014784;28;20281;-70
2023/06/09 04:10:47;;;;;;;10.70;6.95;;;27.30;99.90;;;;;;5018056;28;20219;-70
2023/06/09 04:13:13;;;;;;;9.60;6.88;;;27.70;99.90;;;;;;5009905;28;20206;-70
2023/06/09 04:15:39;;;;;;;10.88;6.68;;;28.10;99.90;;;;;;5011383;28;20600;-70
2023/06/09 04:18:05;;;;;;;8.68;6.72;;;28.20;99.90;;;;;;5014069;28;20553;-70
2023/06/09 04:20:31;;;;;;;7.47;6.25;;;28.60;99.90;;;;;;5019641;28;20180;-70
2023/06/09 04:22:56;;;;;;;9.90;6.10;;;28.90;99.90;;;;;;5018076;28;20220;-70
2023/06/09 04:25:28;;;;;;;6.53;5.85;;;29.20;99.90;;;;;;5018986;28;20293;-71
2023/06/09 04:27:55;;;;;;;12.15;6.82;;;29.30;99.90;;;;;;5020669;28;20591;-70
2023/06/09 04:30:29;;;;;;;10.38;5.75;;;29.70;99.90;;;;;;5019404;28;20220;-70
2023/06/09 04:32:58;;;;;;;7.50;5.60;;;30.00;97.90;;;;;;5022893;28;20172;-70
2023/06/09 04:35:24;;;;;;;7.40;6.28;;;30.00;97.90;;;;;;5026688;28;20223;-70
2023/06/09 04:37:50;;;;;;;9.05;5.57;;;29.80;97.10;;;;;;5025353;28;20318;-70
2023/06/09 04:40:23;;;;;;;6.88;5.60;;;29.10;96.60;;;;;;5040259;28;20208;-70
2023/06/09 04:42:56;;;;;;;11.57;5.25;;;28.30;96.90;;;;;;5022986;28;20211;-70
2023/06/09 04:45:27;;;;;;;6.75;5.40;;;29.00;96.50;;;;;;5022299;28;20204;-68
2023/06/09 04:47:54;;;;;;;9.25;5.50;;;29.40;95.50;;;;;;5025525;28;20342;-70
2023/06/09 04:50:19;;;;;;;6.53;5.00;;;30.50;93.00;;;;;;5035321;28;20176;-71
2023/06/09 04:52:45;;;;;;;7.38;5.15;;;31.00;91.60;;;;;;5023342;28;20200;-70
2023/06/09 04:55:14;;;;;;;9.38;6.18;;;31.60;89.90;;;;;;5019689;28;20199;-70
2023/06/09 04:57:40;;;;;;;7.40;5.68;;;31.70;85.50;;;;;;5031818;28;20208;-71
2023/06/09 05:00:10;;;;;;;6.72;4.45;;;32.30;83.60;;;;;;5020087;28;20541;-68
2023/06/09 05:02:35;;;;;;;4.80;4.28;;;32.90;78.30;;;;;;5033168;28;20214;-68
2023/06/09 05:05:01;;;;;;;5.78;4.53;;;33.10;72.10;;;;;;5019917;28;20203;-69
2023/06/09 05:07:27;;;;;;;5.07;4.57;;;33.30;70.50;;;;;;5022896;28;20207;-71
2023/06/09 05:09:52;;;;;;;7.43;4.60;;;32.90;68.60;;;;;;5025523;28;20200;-71
2023/06/09 05:12:19;;;;;;;5.65;4.70;;;33.30;68.30;;;;;;5040876;28;20236;-71
2023/06/09 05:14:44;;;;;;;6.30;4.05;;;33.60;67.50;;;;;;5026979;28;20255;-68
2023/06/09 05:17:10;;;;;;;4.97;3.80;;;33.10;65.60;;;;;;5026297;28;20228;-71
2023/06/09 05:19:36;;;;;;;6.70;4.10;;;33.10;64.90;;;;;;5026975;28;20207;-71
2023/06/09 05:22:01;;;;;;;4.72;4.22;;;33.80;63.90;;;;;;5027516;28;20608;-70
2023/06/09 05:24:27;;;;;;;6.68;3.88;;;34.10;61.80;;;;;;5028423;28;20203;-72
2023/06/09 05:26:53;;;;;;;5.70;3.83;;;34.10;61.70;;;;;;5028114;28;20180;-71
2023/06/09 05:29:18;;;;;;;6.43;4.65;;;34.20;61.80;;;;;;5025382;28;20635;-71
2023/06/09 05:31:44;;;;;;;5.03;4.10;;;34.10;60.50;;;;;;5022433;28;20685;-71
2023/06/09 05:34:09;;;;;;;4.13;3.55;;;34.30;59.90;;;;;;5019354;28;20606;-71
2023/06/09 05:36:36;;;;;;;4.53;3.80;;;34.70;58.90;;;;;;5036978;28;20286;-69
2023/06/09 05:39:02;;;;;;;6.40;4.18;;;34.10;59.30;;;;;;5021395;28;20254;-71
2023/06/09 05:41:27;;;;;;;4.13;3.65;;;34.90;58.50;;;;;;5038549;28;20264;-70
2023/06/09 05:43:53;;;;;;;6.80;4.30;;;35.40;58.20;;;;;;5023474;28;20250;-70
2023/06/09 05:46:19;;;;;;;4.25;3.75;;;34.80;57.40;;;;;;5022871;28;20574;-71
2023/06/09 05:48:45;;;;;;;6.15;5.00;;;35.20;56.80;;;;;;5024108;28;20210;-71
2023/06/09 05:51:10;;;;;;;4.05;3.65;;;35.10;55.60;;;;;;5023482;28;20216;-71
2023/06/09 05:53:36;;;;;;;5.75;3.92;;;35.00;55.20;;;;;;5026778;28;20176;-71
2023/06/09 05:56:02;;;;;;;5.78;4.20;;;35.20;55.30;;;;;;5023332;28;20203;-69
2023/06/09 05:58:33;;;;;;;5.45;3.85;;;35.40;54.80;;;;;;5027409;28;20234;-70
2023/06/09 06:00:59;;;;;;;3.75;3.45;;;34.60;54.50;;;;;;5026688;28;20228;-70
2023/06/09 06:03:26;;;;;;;5.25;3.97;;;34.40;55.80;;;;;;5028222;28;20196;-70
2023/06/09 06:05:51;;;;;;;5.20;3.40;;;34.90;54.80;;;;;;5026270;28;20290;-70
2023/06/09 06:08:17;;;;;;;4.68;3.75;;;35.20;55.20;;;;;;5021771;28;20271;-70
2023/06/09 06:10:43;;;;;;;5.32;4.43;;;36.30;54.30;;;;;;5025369;28;20276;-70
2023/06/09 06:13:08;;;;;;;6.15;4.38;;;35.90;52.90;;;;;;5018860;28;20208;-70
2023/06/09 06:15:34;;;;;;;3.67;3.28;;;34.50;54.30;;;;;;5020959;28;20219;-70
2023/06/09 06:18:00;;;;;;;6.05;4.10;;;34.80;54.80;;;;;;5018974;28;20287;-70
2023/06/09 06:20:26;;;;;;;5.03;3.38;;;35.10;54.20;;;;;;5022128;28;20176;-70
2023/06/09 06:22:52;;;;;;;5.82;4.38;;;35.10;54.10;;;;;;5021659;28;20678;-68
2023/06/09 06:25:18;;;;;;;4.88;3.50;;;35.70;54.30;;;;;;5021798;28;20214;-70
2023/06/09 06:27:43;;;;;;;7.82;3.70;;;36.40;53.40;;;;;;5024644;28;20299;-70
2023/06/09 06:30:09;;;;;;;4.68;3.58;;;37.00;52.60;;;;;;5022685;28;20710;-70
2023/06/09 06:32:36;;;;;;;5.97;3.60;;;37.00;52.30;;;;;;5026159;28;20642;-70
2023/06/09 06:35:02;;;;;;;5.00;3.35;;;36.70;52.10;;;;;;5022312;28;20756;-70
2023/06/09 06:37:28;;;;;;;5.63;3.63;;;36.60;52.10;;;;;;5026492;28;20239;-71
2023/06/09 06:39:54;;;;;;;6.90;4.43;;;36.60;51.70;;;;;;5028970;28;20235;-71
2023/06/09 06:42:20;;;;;;;9.75;4.20;;;36.10;51.50;;;;;;5030774;28;20204;-70
2023/06/09 06:44:46;;;;;;;5.68;3.80;;;36.40;51.30;;;;;;5031233;28;20172;-70
2023/06/09 06:47:11;;;;;;;4.32;3.92;;;37.30;50.40;;;;;;5031307;28;20231;-70
2023/06/09 06:49:37;;;;;;;4.93;4.20;;;37.20;50.80;;;;;;5030809;28;20693;-71
2023/06/09 06:52:03;;;;;;;4.50;3.63;;;37.50;50.60;;;;;;5025196;28;20661;-70
2023/06/09 06:54:28;;;;;;;5.72;3.78;;;37.80;50.40;;;;;;5023031;28;20598;-70
2023/06/09 06:56:54;;;;;;;5.00;4.18;;;38.00;49.50;;;;;;5023961;28;20590;-70
2023/06/09 06:59:19;;;;;;;6.15;4.10;;;37.50;50.40;;;;;;5020780;28;20220;-69
2023/06/09 07:01:46;;;;;;;6.85;4.70;;;36.80;49.80;;;;;;5026486;28;20204;-70
2023/06/09 07:04:11;;;;;;;4.32;3.92;;;36.70;50.40;;;;;;5023668;28;20200;-70
2023/06/09 07:06:38;;;;;;;4.05;3.70;;;37.40;50.50;;;;;;5026450;28;20261;-70
2023/06/09 07:09:04;;;;;;;5.30;3.90;;;36.40;49.70;;;;;;5021439;28;20172;-69
2023/06/09 07:11:32;;;;;;;5.85;4.35;;;36.60;51.00;;;;;;5028577;28;20612;-70
2023/06/09 07:13:57;;;;;;;6.50;4.78;;;37.10;50.70;;;;;;5029145;28;20223;-71
2023/06/09 07:16:23;;;;;;;5.05;4.57;;;37.00;50.80;;;;;;5029545;28;20224;-70
2023/06/09 07:18:49;;;;;;;4.95;4.45;;;37.40;49.80;;;;;;5029394;28;20200;-71
2023/06/09 07:21:14;;;;;;;5.15;4.10;;;37.50;50.10;;;;;;5029301;28;20245;-70
2023/06/09 07:23:40;;;;;;;7.30;4.28;;;36.90;49.60;;;;;;5030704;28;20190;-70
2023/06/09 07:26:06;;;;;;;5.30;4.13;;;35.70;50.90;;;;;;5029453;28;20338;-70
2023/06/09 07:28:31;;;;;;;8.10;4.00;;;36.20;50.90;;;;;;5031277;28;20705;-70
2023/06/09 07:30:57;;;;;;;6.68;4.40;;;34.90;52.50;;;;;;5031422;28;20212;-70
2023/06/09 07:33:23;;;;;;;6.00;3.85;;;34.30;52.60;;;;;;5024196;28;20200;-69
2023/06/09 07:35:49;;;;;;;5.95;3.80;;;34.30;53.70;;;;;;5022219;28;20173;-69
2023/06/09 07:38:16;;;;;;;5.40;3.95;;;33.50;54.40;;;;;;5021191;28;20529;-70
2023/06/09 07:40:42;;;;;;;6.15;4.88;;;32.90;55.50;;;;;;5017658;28;20207;-70
2023/06/09 07:43:07;;;;;;;5.32;3.88;;;33.50;54.90;;;;;;5022737;28;20772;-70
2023/06/09 07:45:33;;;;;;;8.85;4.13;;;35.00;54.10;;;;;;5025308;28;20214;-70
2023/06/09 07:47:59;;;;;;;6.32;4.20;;;35.40;53.20;;;;;;5023278;28;20207;-70
2023/06/09 07:50:25;;;;;;;4.35;3.75;;;35.40;53.20;;;;;;5026016;28;20223;-71
2023/06/09 07:52:52;;;;;;;7.93;4.45;;;35.90;53.20;;;;;;5026734;28;20219;-69
2023/06/09 07:55:18;;;;;;;8.90;4.88;;;36.60;52.50;;;;;;5025626;28;20254;-71
2023/06/09 07:57:43;;;;;;;5.72;4.53;;;37.10;52.40;;;;;;5028244;28;20208;-70
2023/06/09 08:00:10;;;;;;;10.70;4.22;;;37.90;52.30;;;;;;5027239;28;20207;-71
2023/06/09 08:02:40;;;;;;;9.13;4.75;;;36.90;51.60;;;;;;5029568;28;20168;-70
2023/06/09 08:05:06;;;;;;;7.40;4.65;;;35.30;53.30;;;;;;5027843;28;20257;-71
2023/06/09 08:07:32;;;;;;;5.30;4.18;;;34.70;54.80;;;;;;5029661;28;20231;-70
2023/06/09 08:09:57;;;;;;;5.47;3.90;;;33.80;55.30;;;;;;5030170;28;20635;-70
2023/06/09 08:12:23;;;;;;;5.70;4.00;;;32.90;56.90;;;;;;5029522;28;20212;-70
2023/06/09 08:14:49;;;;;;;11.02;4.80;;;32.40;57.80;;;;;;5022580;28;20263;-70
2023/06/09 08:17:14;;;;;;;10.77;6.88;;;31.70;59.70;;;;;;5020353;28;20244;-70
2023/06/09 08:19:40;;;;;;;8.85;4.10;;;30.90;60.50;;;;;;5022282;28;20220;-70
2023/06/09 08:22:06;;;;;;;8.90;5.10;;;30.40;60.50;;;;;;5022436;28;20305;-68
2023/06/09 08:24:31;;;;;;;5.43;4.03;;;30.20;62.20;;;;;;5023989;28;20205;-71
2023/06/09 08:26:58;;;;;;;6.20;4.20;;;30.20;61.40;;;;;;5023285;28;20298;-70
2023/06/09 08:29:23;;;;;;;7.43;3.88;;;30.00;61.90;;;;;;5025002;28;20248;-70
2023/06/09 08:31:49;;;;;;;9.18;4.50;;;30.30;61.40;;;;;;5026206;28;20309;-71
2023/06/09 08:34:15;;;;;;;6.13;3.42;;;30.50;61.90;;;;;;5024096;28;20874;-70
2023/06/09 08:36:41;;;;;;;9.93;4.05;;;31.80;60.30;;;;;;5024472;28;20262;-70
2023/06/09 08:39:07;;;;;;;4.90;3.95;;;32.70;58.60;;;;;;5025851;28;20251;-70
2023/06/09 08:41:37;;;;;;;5.18;3.33;;;31.90;58.20;;;;;;5028451;28;20256;-70
2023/06/09 08:44:04;;;;;;;6.10;4.00;;;31.70;59.30;;;;;;5027002;28;20200;-70
2023/06/09 08:46:35;;;;;;;9.70;4.70;;;31.20;59.20;;;;;;5027571;28;20204;-70
2023/06/09 08:49:01;;;;;;;9.20;4.15;;;31.90;58.70;;;;;;5025678;28;20250;-69
2023/06/09 08:51:27;;;;;;;6.18;3.80;;;32.50;58.70;;;;;;5029582;28;20674;-71
2023/06/09 08:53:53;;;;;;;4.75;3.90;;;32.50;58.10;;;;;;5029807;28;20223;-70
2023/06/09 08:56:23;;;;;;;6.32;3.78;;;32.90;58.50;;;;;;5033950;28;20513;-71
2023/06/09 08:58:50;;;;;;;6.47;3.92;;;33.80;57.70;;;;;;5021495;28;20220;-70
2023/06/09 09:01:20;;;;;;;7.57;3.92;;;33.20;57.60;;;;;;5019131;28;20588;-70
2023/06/09 09:03:50;;;;;;;7.57;3.80;;;33.70;58.90;;;;;;5024149;28;20578;-71
2023/06/09 09:06:16;;;;;;;10.65;4.25;;;34.60;57.20;;;;;;5020875;28;20205;-70
2023/06/09 09:08:46;;;;;;;7.72;3.55;;;34.40;57.20;;;;;;5022533;28;20210;-70
2023/06/09 09:11:12;;;;;;;4.50;3.95;;;33.40;57.80;;;;;;5019016;28;20267;-71
2023/06/09 09:13:40;;;;;;;6.15;4.05;;;32.90;58.90;;;;;;5025671;28;20204;-70
2023/06/09 09:16:10;;;;;;;8.43;4.28;;;32.60;60.00;;;;;;5023687;28;20200;-71
2023/06/09 09:18:36;;;;;;;6.32;3.90;;;32.80;59.60;;;;;;5025352;28;20282;-71
2023/06/09 09:21:02;;;;;;;6.22;3.90;;;31.90;60.30;;;;;;5025953;28;20219;-70
2023/06/09 09:23:30;;;;;;;7.45;4.43;;;31.70;63.20;;;;;;5028257;28;20188;-70
2023/06/09 09:25:57;;;;;;;8.93;4.00;;;31.70;62.70;;;;;;5013475;28;20689;-70
2023/06/09 09:28:22;;;;;;;5.43;3.97;;;31.80;63.30;;;;;;5028520;28;20235;-69
2023/06/09 09:30:55;;;;;;;6.32;4.20;;;32.10;62.70;;;;;;5029016;28;20235;-70
2023/06/09 09:33:23;;;;;;;7.25;4.55;;;32.60;61.70;;;;;;5022170;28;20223;-70
2023/06/09 09:35:53;;;;;;;7.55;3.75;;;33.00;61.90;;;;;;5016509;28;20172;-70
2023/06/09 09:38:27;;;;;;;7.25;3.75;;;32.90;61.50;;;;;;5012206;28;20198;-70
2023/06/09 09:40:55;;;;;;;7.72;4.25;;;33.20;61.60;;;;;;5016566;28;20206;-68
2023/06/09 09:43:24;;;;;;;6.22;4.38;;;33.50;61.80;;;;;;5017737;28;20205;-70
2023/06/09 09:45:51;;;;;;;9.77;5.70;;;33.20;61.90;;;;;;5023500;28;20212;-70
2023/06/09 09:48:19;;;;;;;8.80;4.65;;;33.20;62.80;;;;;;5017145;28;20231;-70
2023/06/09 09:50:46;;;;;;;5.47;4.50;;;33.60;62.30;;;;;;5025347;28;20218;-70
2023/06/09 09:53:12;;;;;;;6.00;4.60;;;32.90;62.20;;;;;;5021362;28;20227;-71
2023/06/09 09:55:42;;;;;;;8.65;5.25;;;32.30;62.70;;;;;;5025322;28;20204;-70
2023/06/09 09:58:09;;;;;;;8.27;4.60;;;32.10;64.00;;;;;;5024122;28;20318;-70
2023/06/09 10:00:36;;;;;;;11.07;4.82;;;31.80;64.60;;;;;;5026864;28;20577;-70
2023/06/09 10:03:14;;;;;;;6.05;4.60;;;31.80;65.70;;;;;;5025295;28;20493;-69
2023/06/09 10:05:45;;;;;;;7.13;4.47;;;32.10;66.80;;;;;;5027330;28;20570;-71
2023/06/09 10:08:26;;;;;;;7.32;4.32;;;32.30;66.50;;;;;;5027130;28;20200;-71
2023/06/09 10:10:56;;;;;;;10.77;4.70;;;32.60;67.80;;;;;;5021778;28;20576;-68
2023/06/09 10:13:25;;;;;;;8.38;4.72;;;32.10;67.20;;;;;;5023697;28;20212;-69
2023/06/09 10:15:52;;;;;;;8.20;5.18;;;32.60;67.20;;;;;;5026091;28;20204;-70
2023/06/09 10:18:20;;;;;;;8.18;4.88;;;32.60;67.40;;;;;;5016880;28;20236;-70
2023/06/09 10:20:48;;;;;;;6.00;4.90;;;32.30;66.80;;;;;;5022945;28;20187;-70
2023/06/09 10:23:15;;;;;;;6.70;4.35;;;31.90;66.80;;;;;;5002567;28;20209;-70
2023/06/09 10:25:41;;;;;;;4.72;3.95;;;31.60;66.90;;;;;;5006425;28;20722;-70
2023/06/09 10:28:10;;;;;;;5.78;4.40;;;31.80;67.60;;;;;;5016736;28;20254;-70
2023/06/09 10:30:36;;;;;;;7.68;5.00;;;32.20;67.20;;;;;;5027798;28;20205;-70
2023/06/09 10:33:09;;;;;;;7.13;4.35;;;32.30;66.60;;;;;;5044487;22;20278;-76
2023/06/09 10:35:37;;;;;;;5.53;5.00;;;32.40;66.10;;;;;;5020145;28;20173;-77
2023/06/09 10:38:25;;;;;;;7.55;3.78;;;31.80;64.40;;;;;;5011006;28;20237;-77
2023/06/09 10:41:17;;;;;;;5.20;4.03;;;31.50;65.20;;;;;;5013102;28;20205;-77
2023/06/09 10:44:05;;;;;;;5.32;3.88;;;31.90;65.50;;;;;;4994642;28;20288;-77
2023/06/09 10:46:48;;;;;;;5.57;4.40;;;32.20;65.00;;;;;;4989002;28;20614;-77
2023/06/09 10:49:29;;;;;;;5.15;3.58;;;32.30;65.20;;;;;;4990464;28;20219;-77
2023/06/09 10:51:55;;;;;;;4.85;4.25;;;32.50;64.00;;;;;;4984890;28;20674;-76
2023/06/09 10:54:25;;;;;;;4.50;3.60;;;32.80;63.40;;;;;;4982374;28;20206;-76
2023/06/09 10:56:54;;;;;;;4.80;3.75;;;32.50;63.80;;;;;;4982111;28;20236;-76
2023/06/09 10:59:25;;;;;;;6.40;4.25;;;32.60;64.60;;;;;;4993577;28;20173;-76
2023/06/09 11:02:00;;;;;;;4.95;4.18;;;32.50;65.10;;;;;;4996638;28;20281;-77
2023/06/09 11:04:39;;;;;;;16.60;8.80;;;32.40;65.40;;;;;;4992833;28;20642;-77
2023/06/09 11:07:26;;;;;;;13.88;8.52;;;32.50;65.80;;;;;;4997915;28;20229;-78
2023/06/09 11:09:53;;;;;;;11.73;4.60;;;32.60;65.60;;;;;;4992849;28;20267;-78
2023/06/09 11:12:24;;;;;;;5.63;4.05;;;32.50;65.60;;;;;;4991258;28;20220;-77
2023/06/09 11:14:52;;;;;;;5.22;3.90;;;32.40;65.40;;;;;;4992175;28;20178;-76
2023/06/09 11:17:32;;;;;;;6.78;3.80;;;32.10;65.60;;;;;;4990249;28;20208;-77
2023/06/09 11:20:10;;;;;;;5.35;4.00;;;31.50;66.40;;;;;;4991536;28;20515;-77
2023/06/09 11:22:41;;;;;;;6.45;3.63;;;31.20;67.00;;;;;;4991035;28;20268;-77
2023/06/09 11:25:08;;;;;;;5.15;4.35;;;30.90;67.00;;;;;;4997517;28;20216;-78
2023/06/09 11:27:34;;;;;;;4.88;3.70;;;30.90;67.80;;;;;;4988498;28;20213;-77
2023/06/09 11:30:20;;;;;;;8.20;3.80;;;31.00;66.90;;;;;;4986302;28;20522;-77
2023/06/09 11:33:01;;;;;;;4.57;4.15;;;30.70;66.90;;;;;;4990052;28;20218;-78
2023/06/09 11:35:40;;;;;;;5.47;4.13;;;31.00;67.70;;;;;;4984433;28;20204;-76
2023/06/09 11:38:10;;;;;;;5.47;4.22;;;31.20;68.40;;;;;;4984978;28;20205;-77
2023/06/09 11:40:48;;;;;;;9.18;4.70;;;31.30;67.90;;;;;;5001789;28;20614;-77
2023/06/09 11:43:13;;;;;;;7.38;4.38;;;31.50;68.00;;;;;;5001518;28;20213;-77
2023/06/09 11:45:39;;;;;;;5.63;4.40;;;31.80;66.80;;;;;;4997961;28;20214;-77
2023/06/09 11:48:06;;;;;;;6.28;4.10;;;31.70;66.70;;;;;;4998869;28;20220;-76
2023/06/09 11:51:00;;;;;;;4.63;4.22;;;31.60;67.40;;;;;;4992896;28;20208;-78
2023/06/09 11:53:26;;;;;;;3.75;3.45;;;31.60;67.40;;;;;;4991039;28;20251;-77
2023/06/09 11:56:00;;;;;;;6.00;4.15;;;31.60;67.30;;;;;;4991511;28;20201;-77
2023/06/09 11:58:26;;;;;;;5.55;4.03;;;31.50;67.50;;;;;;4991373;28;20339;-76
2023/06/09 12:00:52;;;;;;;4.35;3.85;;;31.20;67.30;;;;;;4989611;28;20206;-75
2023/06/09 12:03:19;;;;;;;6.65;4.40;;;31.10;68.00;;;;;;4993024;28;20216;-77
2023/06/09 12:05:49;;;;;;;8.63;5.47;;;31.00;67.70;;;;;;4987852;28;20292;-77
2023/06/09 12:08:14;;;;;;;10.00;4.65;;;31.20;68.40;;;;;;4989299;28;20201;-77
2023/06/09 12:10:40;;;;;;;5.32;3.85;;;31.40;67.50;;;;;;4986087;28;20228;-77
2023/06/09 12:13:06;;;;;;;14.43;5.10;;;31.20;67.00;;;;;;4983836;28;20214;-78
2023/06/09 12:15:32;;;;;;;7.15;4.45;;;31.20;67.30;;;;;;4984146;28;20289;-77
2023/06/09 12:18:01;;;;;;;9.02;4.05;;;31.10;66.70;;;;;;4981605;28;20261;-78
2023/06/09 12:20:29;;;;;;;5.80;4.15;;;31.20;66.60;;;;;;4995878;28;20161;-78
2023/06/09 12:22:57;;;;;;;6.43;4.50;;;31.20;66.40;;;;;;4997168;28;20573;-77
2023/06/09 12:25:27;;;;;;;7.25;4.20;;;31.00;65.10;;;;;;4996608;28;20695;-77
2023/06/09 12:27:55;;;;;;;7.20;4.32;;;30.70;66.10;;;;;;4995751;28;20205;-77
2023/06/09 12:30:37;;;;;;;5.78;3.90;;;30.60;66.00;;;;;;4996139;28;20544;-77
2023/06/09 12:33:10;;;;;;;5.15;4.57;;;30.60;66.30;;;;;;4994806;28;20238;-77
2023/06/09 12:35:43;;;;;;;4.70;4.05;;;30.60;66.70;;;;;;4994006;28;20174;-77
2023/06/09 12:38:17;;;;;;;5.32;4.10;;;30.60;67.30;;;;;;4993019;28;20234;-77
2023/06/09 12:40:44;;;;;;;7.40;3.75;;;30.50;66.10;;;;;;4993234;28;20626;-76
2023/06/09 12:43:11;;;;;;;5.45;4.15;;;30.60;66.10;;;;;;4997925;28;20221;-78
2023/06/09 12:45:37;;;;;;;4.88;3.92;;;30.70;66.20;;;;;;4991877;28;20205;-77
2023/06/09 12:48:06;;;;;;;5.78;4.07;;;30.60;66.30;;;;;;4988334;28;20579;-77
2023/06/09 12:50:32;;;;;;;5.20;3.88;;;30.50;66.90;;;;;;4987405;28;20181;-77